Time;durP1;ratioP1;P1;durP2;ratioP2;P2;SDS_P1;SDS_P2;PMS_P1;PMS_P2;Temp;Humidity;BMP_temperature;BMP_pressure;BME280_temperature;BME280_humidity;BME280_pressure;Samples;Min_cycle;Max_cycle;Signal;HPM_P1;HPM_P2
2022/03/04 00:01:56;;;;;;;23.85;17.58;;;1.60;99.90;;;;;;5084426;28;20556;-85
2022/03/04 00:04:22;;;;;;;24.10;17.15;;;1.50;99.90;;;;;;5089169;28;20875;-84
2022/03/04 00:06:47;;;;;;;21.30;16.80;;;1.50;99.90;;;;;;5090148;28;20383;-85
2022/03/04 00:09:13;;;;;;;19.42;16.10;;;1.40;99.90;;;;;;5066387;28;20919;-86
2022/03/04 00:11:39;;;;;;;20.17;15.20;;;1.50;99.90;;;;;;5051054;28;20374;-82
2022/03/04 00:14:04;;;;;;;20.83;16.00;;;1.60;99.90;;;;;;5051047;28;20382;-84
2022/03/04 00:16:31;;;;;;;19.58;15.75;;;1.60;99.90;;;;;;5073861;28;20393;-82
2022/03/04 00:19:07;;;;;;;22.05;16.00;;;1.50;99.90;;;;;;5069220;28;20382;-83
2022/03/04 00:21:51;;;;;;;18.70;16.23;;;1.60;99.90;;;;;;5050761;28;21158;-82
2022/03/04 00:24:20;;;;;;;20.67;15.52;;;1.50;99.90;;;;;;5085433;28;20380;-86
2022/03/04 00:26:47;;;;;;;19.42;15.20;;;1.60;99.90;;;;;;5053872;28;20418;-83
2022/03/04 00:29:13;;;;;;;19.67;14.77;;;1.60;99.90;;;;;;5050923;28;20381;-84
2022/03/04 00:31:40;;;;;;;21.15;14.70;;;1.60;99.90;;;;;;5050749;28;20779;-84
2022/03/04 00:34:07;;;;;;;18.17;14.43;;;1.60;99.90;;;;;;5068557;28;21276;-81
2022/03/04 00:36:37;;;;;;;18.90;14.02;;;1.50;99.90;;;;;;5068652;28;20409;-84
2022/03/04 00:39:05;;;;;;;18.77;14.05;;;1.60;99.90;;;;;;5053493;28;20395;-81
2022/03/04 00:41:31;;;;;;;18.97;14.10;;;1.50;99.90;;;;;;5050461;28;20389;-85
2022/03/04 00:43:57;;;;;;;18.48;13.95;;;1.60;99.90;;;;;;5068625;28;20374;-86
2022/03/04 00:46:23;;;;;;;16.85;13.13;;;1.50;99.90;;;;;;5059276;28;20412;-83
2022/03/04 00:48:49;;;;;;;19.63;13.27;;;1.60;99.90;;;;;;5070393;28;20468;-85
2022/03/04 00:51:15;;;;;;;15.18;13.23;;;1.70;99.90;;;;;;5074482;28;20518;-84
2022/03/04 00:53:41;;;;;;;14.80;12.30;;;1.80;99.90;;;;;;5057582;28;20381;-82
2022/03/04 00:56:08;;;;;;;17.35;13.07;;;1.80;99.90;;;;;;5054005;28;20724;-85
2022/03/04 00:58:35;;;;;;;19.13;12.68;;;1.70;99.90;;;;;;5054292;28;20453;-83
2022/03/04 01:01:01;;;;;;;16.10;11.80;;;1.70;99.90;;;;;;5085666;28;20416;-84
2022/03/04 01:03:26;;;;;;;15.93;12.52;;;1.60;99.90;;;;;;5091524;28;20405;-83
2022/03/04 01:05:52;;;;;;;19.40;12.70;;;1.80;99.90;;;;;;5074132;28;20747;-85
2022/03/04 01:08:18;;;;;;;17.95;12.40;;;1.80;99.90;;;;;;5058729;28;20396;-83
2022/03/04 01:10:44;;;;;;;16.27;11.95;;;1.80;99.90;;;;;;5073675;28;20385;-83
2022/03/04 01:13:10;;;;;;;16.00;12.60;;;1.80;99.90;;;;;;5092257;28;20390;-82
2022/03/04 01:15:36;;;;;;;17.95;11.65;;;1.80;99.90;;;;;;5091948;28;20373;-82
2022/03/04 01:18:02;;;;;;;14.95;11.70;;;1.80;99.90;;;;;;5091708;28;20388;-84
2022/03/04 01:20:29;;;;;;;15.15;11.93;;;1.70;99.90;;;;;;5091770;28;20874;-84
2022/03/04 01:22:54;;;;;;;16.10;11.85;;;1.70;99.90;;;;;;5058725;28;20393;-84
2022/03/04 01:25:20;;;;;;;16.83;11.15;;;1.70;99.90;;;;;;5071549;28;20436;-81
2022/03/04 01:27:46;;;;;;;16.60;12.50;;;1.60;99.90;;;;;;5071499;28;20459;-84
2022/03/04 01:30:14;;;;;;;15.10;11.35;;;1.50;99.90;;;;;;5053368;28;20382;-85
2022/03/04 01:32:40;;;;;;;14.50;11.15;;;1.50;99.90;;;;;;5053181;28;20390;-83
2022/03/04 01:35:06;;;;;;;14.57;11.30;;;1.60;99.90;;;;;;5055860;28;20390;-82
2022/03/04 01:37:32;;;;;;;16.23;11.82;;;1.80;99.90;;;;;;5074371;28;20380;-82
2022/03/04 01:39:57;;;;;;;13.27;11.23;;;1.80;99.90;;;;;;5091574;28;20372;-83
2022/03/04 01:42:23;;;;;;;15.63;11.33;;;1.80;99.90;;;;;;5074510;28;20379;-84
2022/03/04 01:44:49;;;;;;;15.98;11.52;;;1.70;99.90;;;;;;5091736;28;20381;-85
2022/03/04 01:47:14;;;;;;;14.50;10.98;;;1.70;99.90;;;;;;5080755;28;20888;-84
2022/03/04 01:49:41;;;;;;;14.63;10.60;;;1.70;99.90;;;;;;5071206;28;20427;-81
2022/03/04 01:52:08;;;;;;;14.02;10.65;;;1.70;99.90;;;;;;5071996;28;20878;-82
2022/03/04 01:54:34;;;;;;;13.15;10.27;;;1.70;99.90;;;;;;5091537;28;20408;-84
2022/03/04 01:57:00;;;;;;;14.68;10.82;;;1.60;99.90;;;;;;5090974;28;20376;-85
2022/03/04 01:59:27;;;;;;;14.27;10.88;;;1.60;99.90;;;;;;5072772;28;20894;-86
2022/03/04 02:01:53;;;;;;;12.53;9.87;;;1.70;99.90;;;;;;5070815;28;20524;-86
2022/03/04 02:04:23;;;;;;;11.63;9.45;;;1.60;99.90;;;;;;5070840;28;20390;-83
2022/03/04 02:06:49;;;;;;;10.95;7.95;;;1.70;99.90;;;;;;5082548;28;20423;-81
2022/03/04 02:09:15;;;;;;;11.07;9.03;;;1.70;99.90;;;;;;5070656;28;20420;-85
2022/03/04 02:11:43;;;;;;;9.93;8.18;;;1.70;99.90;;;;;;5052500;28;20469;-83
2022/03/04 02:14:09;;;;;;;10.83;8.37;;;1.70;99.90;;;;;;5052674;28;20386;-83
2022/03/04 02:16:46;;;;;;;11.52;8.20;;;1.70;99.90;;;;;;5052394;28;20385;-82
2022/03/04 02:19:12;;;;;;;11.88;8.55;;;1.70;99.90;;;;;;5069784;28;20802;-86
2022/03/04 02:22:01;;;;;;;9.65;7.95;;;1.60;99.90;;;;;;5053227;28;20382;-86
2022/03/04 02:24:29;;;;;;;11.70;8.18;;;1.60;99.90;;;;;;5070036;28;20463;-85
2022/03/04 02:26:57;;;;;;;10.93;7.43;;;1.60;99.90;;;;;;5070392;28;20394;-80
2022/03/04 02:29:23;;;;;;;11.15;7.90;;;1.70;99.90;;;;;;5070318;28;20382;-82
2022/03/04 02:31:51;;;;;;;9.80;7.82;;;1.60;99.90;;;;;;5085607;28;20392;-82
2022/03/04 02:34:17;;;;;;;9.88;7.53;;;1.50;99.90;;;;;;5071443;28;20481;-84
2022/03/04 02:36:44;;;;;;;9.00;7.40;;;1.60;99.90;;;;;;5072088;28;20373;-82
2022/03/04 02:39:10;;;;;;;9.88;7.40;;;1.70;99.90;;;;;;5090489;28;20420;-83
2022/03/04 02:41:37;;;;;;;11.00;7.25;;;1.60;99.90;;;;;;5072308;28;20377;-84
2022/03/04 02:44:11;;;;;;;11.00;7.43;;;1.60;99.90;;;;;;5085358;28;20432;-83
2022/03/04 02:46:37;;;;;;;12.52;7.60;;;1.60;99.90;;;;;;5069433;28;20402;-84
2022/03/04 02:49:04;;;;;;;8.77;7.07;;;1.80;99.90;;;;;;5054470;28;20465;-83
2022/03/04 02:51:30;;;;;;;9.45;7.40;;;1.70;99.90;;;;;;5089792;28;20433;-86
2022/03/04 02:53:55;;;;;;;9.53;7.57;;;1.70;99.90;;;;;;5090212;28;20368;-84
2022/03/04 02:56:21;;;;;;;11.10;7.57;;;1.60;99.90;;;;;;5068443;28;20496;-84
2022/03/04 02:58:47;;;;;;;9.68;7.25;;;1.60;99.90;;;;;;5051648;28;20386;-84
2022/03/04 03:01:13;;;;;;;8.60;7.00;;;1.70;99.90;;;;;;5069579;28;20760;-84
2022/03/04 03:03:39;;;;;;;8.90;6.97;;;1.70;99.90;;;;;;5053698;28;20861;-85
2022/03/04 03:06:05;;;;;;;8.20;7.18;;;1.60;99.90;;;;;;5089598;28;20373;-83
2022/03/04 03:08:31;;;;;;;11.35;7.45;;;1.70;99.90;;;;;;5072759;28;20722;-86
2022/03/04 03:10:57;;;;;;;9.45;7.25;;;1.70;99.90;;;;;;5078527;28;20381;-83
2022/03/04 03:13:22;;;;;;;9.60;7.38;;;1.60;99.90;;;;;;5050755;28;20374;-82
2022/03/04 03:15:48;;;;;;;11.50;7.20;;;1.80;99.90;;;;;;5051473;28;20390;-84
2022/03/04 03:18:15;;;;;;;8.90;6.50;;;1.80;99.90;;;;;;5069212;28;20402;-83
2022/03/04 03:20:40;;;;;;;8.88;6.82;;;1.90;99.90;;;;;;5069779;28;20374;-85
2022/03/04 03:23:06;;;;;;;8.43;6.63;;;1.90;99.90;;;;;;5069602;28;20374;-84
2022/03/04 03:25:31;;;;;;;8.33;6.30;;;2.00;99.90;;;;;;5051068;28;20765;-85
2022/03/04 03:27:57;;;;;;;8.85;6.80;;;2.00;99.90;;;;;;5086239;28;20759;-86
2022/03/04 03:30:23;;;;;;;10.10;6.63;;;2.00;99.90;;;;;;5071413;28;20399;-84
2022/03/04 03:32:48;;;;;;;8.37;6.40;;;2.10;99.90;;;;;;5089671;28;20404;-83
2022/03/04 03:35:14;;;;;;;7.50;6.07;;;2.10;99.90;;;;;;5070514;28;20403;-83
2022/03/04 03:37:40;;;;;;;8.17;6.20;;;2.20;99.90;;;;;;5089898;28;20882;-86
2022/03/04 03:40:08;;;;;;;10.13;6.30;;;2.20;99.90;;;;;;5090106;28;20739;-85
2022/03/04 03:42:34;;;;;;;6.95;6.05;;;2.20;99.90;;;;;;5069282;28;20381;-83
2022/03/04 03:45:00;;;;;;;8.88;5.78;;;2.30;99.90;;;;;;5089017;28;20395;-83
2022/03/04 03:47:25;;;;;;;6.97;5.88;;;2.30;99.90;;;;;;5089082;28;20567;-86
2022/03/04 03:49:51;;;;;;;12.68;6.50;;;2.30;99.90;;;;;;5070740;28;20389;-86
2022/03/04 03:52:17;;;;;;;9.37;6.23;;;2.30;99.90;;;;;;5071028;28;20722;-85
2022/03/04 03:54:42;;;;;;;7.73;6.53;;;2.30;99.90;;;;;;5070989;28;20380;-84
2022/03/04 03:57:10;;;;;;;7.77;5.93;;;2.30;99.90;;;;;;5068480;28;20395;-82
2022/03/04 03:59:36;;;;;;;9.15;6.90;;;2.30;99.90;;;;;;5070555;28;20473;-86
2022/03/04 04:02:02;;;;;;;8.23;5.40;;;2.30;99.90;;;;;;5068341;28;20377;-84
2022/03/04 04:04:33;;;;;;;8.50;6.30;;;2.30;99.90;;;;;;5088535;28;20920;-83
2022/03/04 04:07:03;;;;;;;7.45;5.63;;;2.30;99.90;;;;;;5089598;28;20404;-83
2022/03/04 04:09:29;;;;;;;7.70;6.10;;;2.30;99.90;;;;;;5054601;28;20390;-83
2022/03/04 04:11:55;;;;;;;6.53;5.82;;;2.30;99.90;;;;;;5051010;28;20374;-83
2022/03/04 04:14:20;;;;;;;8.77;6.25;;;2.40;99.90;;;;;;5069201;28;20406;-83
2022/03/04 04:16:46;;;;;;;8.70;6.63;;;2.40;99.90;;;;;;5050936;28;20485;-86
2022/03/04 04:19:12;;;;;;;8.32;6.00;;;2.30;99.90;;;;;;5085013;28;20391;-82
2022/03/04 04:21:38;;;;;;;8.50;6.57;;;2.40;99.90;;;;;;5070828;28;20384;-84
2022/03/04 04:24:04;;;;;;;8.77;5.93;;;2.40;99.90;;;;;;5091434;28;20372;-85
2022/03/04 04:26:30;;;;;;;6.38;5.50;;;2.20;99.90;;;;;;5075051;28;20792;-85
2022/03/04 04:28:56;;;;;;;6.53;5.20;;;2.10;99.90;;;;;;5092967;28;20361;-83
2022/03/04 04:31:22;;;;;;;8.05;5.85;;;2.10;99.90;;;;;;5087582;28;20446;-83
2022/03/04 04:33:49;;;;;;;7.80;6.40;;;2.10;99.90;;;;;;5072783;28;20464;-87
2022/03/04 04:36:14;;;;;;;8.52;6.75;;;2.00;99.90;;;;;;5055335;28;20887;-85
2022/03/04 04:38:40;;;;;;;9.25;6.32;;;1.90;99.90;;;;;;5073709;28;20423;-82
2022/03/04 04:41:06;;;;;;;9.93;6.90;;;1.80;99.90;;;;;;5054696;28;20516;-84
2022/03/04 04:43:32;;;;;;;9.23;6.60;;;1.80;99.90;;;;;;5055299;28;20374;-84
2022/03/04 04:45:57;;;;;;;8.40;6.57;;;1.70;99.90;;;;;;5057786;28;20916;-86
2022/03/04 04:48:23;;;;;;;7.93;6.53;;;1.70;99.90;;;;;;5092794;28;20388;-84
2022/03/04 04:50:49;;;;;;;10.53;6.97;;;1.70;99.90;;;;;;5074439;28;20372;-83
2022/03/04 04:53:15;;;;;;;8.75;6.38;;;1.80;99.90;;;;;;5085647;28;20497;-87
2022/03/04 04:55:41;;;;;;;12.20;7.50;;;1.80;99.90;;;;;;5054739;28;20472;-87
2022/03/04 04:58:06;;;;;;;9.73;7.00;;;1.90;99.90;;;;;;5059249;28;20380;-87
2022/03/04 05:00:32;;;;;;;10.00;6.77;;;2.00;99.90;;;;;;5072267;28;20384;-85
2022/03/04 05:02:57;;;;;;;10.45;6.50;;;1.90;99.90;;;;;;5054221;28;20795;-86
2022/03/04 05:05:23;;;;;;;10.02;7.60;;;1.70;99.90;;;;;;5071683;28;20413;-88
2022/03/04 05:07:49;;;;;;;13.43;7.93;;;1.60;99.90;;;;;;5071871;28;20404;-85
2022/03/04 05:10:14;;;;;;;10.55;6.90;;;1.60;99.90;;;;;;5067129;28;20387;-87
2022/03/04 05:12:41;;;;;;;8.88;7.20;;;1.50;99.90;;;;;;5092280;28;20380;-83
2022/03/04 05:15:07;;;;;;;11.02;6.63;;;1.60;99.90;;;;;;5073758;28;20434;-86
2022/03/04 05:17:33;;;;;;;12.63;6.82;;;1.80;99.90;;;;;;5074034;28;20373;-85
2022/03/04 05:19:58;;;;;;;8.80;6.63;;;1.70;99.90;;;;;;5091895;28;20422;-83
2022/03/04 05:22:24;;;;;;;9.70;6.67;;;1.70;99.90;;;;;;5088983;28;20415;-87
2022/03/04 05:24:50;;;;;;;11.40;7.23;;;1.80;99.90;;;;;;5087408;28;20367;-84
2022/03/04 05:27:15;;;;;;;9.87;6.80;;;1.80;99.90;;;;;;5053801;28;20983;-85
2022/03/04 05:29:41;;;;;;;9.55;7.13;;;1.70;99.90;;;;;;5054323;28;20414;-86
2022/03/04 05:32:07;;;;;;;10.85;6.97;;;1.70;99.90;;;;;;5053466;28;20378;-85
2022/03/04 05:34:33;;;;;;;10.60;6.85;;;1.80;99.90;;;;;;5053249;28;20390;-83
2022/03/04 05:36:59;;;;;;;11.03;6.87;;;1.80;99.90;;;;;;5064339;28;20450;-86
2022/03/04 05:39:24;;;;;;;11.37;7.23;;;2.10;99.90;;;;;;5091818;28;20376;-83
2022/03/04 05:41:50;;;;;;;7.27;6.00;;;2.10;99.90;;;;;;5091417;28;20375;-87
2022/03/04 05:44:15;;;;;;;9.27;6.55;;;2.00;99.90;;;;;;5090952;28;20808;-86
2022/03/04 05:46:41;;;;;;;9.05;6.38;;;2.00;99.90;;;;;;5091025;28;20404;-87
2022/03/04 05:49:07;;;;;;;10.65;6.50;;;1.90;99.90;;;;;;5091749;28;20364;-85
2022/03/04 05:51:34;;;;;;;10.48;6.65;;;1.80;99.90;;;;;;5071421;28;20384;-83
2022/03/04 05:54:00;;;;;;;8.75;5.78;;;1.70;99.90;;;;;;5053808;28;20401;-84
2022/03/04 05:56:26;;;;;;;7.28;5.97;;;1.60;99.90;;;;;;5054367;28;20382;-85
2022/03/04 05:58:52;;;;;;;11.35;6.80;;;1.60;99.90;;;;;;5071179;28;20437;-84
2022/03/04 06:01:18;;;;;;;10.47;6.23;;;1.70;99.90;;;;;;5069630;28;20408;-88
2022/03/04 06:03:43;;;;;;;12.20;7.18;;;1.70;99.90;;;;;;5091894;28;20430;-86
2022/03/04 06:06:11;;;;;;;10.50;7.10;;;1.60;99.90;;;;;;5094562;28;20384;-84
2022/03/04 06:08:37;;;;;;;13.13;7.60;;;1.60;99.90;;;;;;5050025;28;20917;-84
2022/03/04 06:11:03;;;;;;;9.82;6.90;;;1.70;99.90;;;;;;5033621;28;20368;-86
2022/03/04 06:13:29;;;;;;;10.45;6.72;;;1.80;99.90;;;;;;5040730;28;20566;-83
2022/03/04 06:15:55;;;;;;;9.30;6.23;;;1.80;99.90;;;;;;5069849;28;20401;-87
2022/03/04 06:18:21;;;;;;;9.02;6.13;;;1.90;99.90;;;;;;5076567;28;20450;-87
2022/03/04 06:20:47;;;;;;;8.77;6.10;;;1.90;99.90;;;;;;5072113;28;20418;-87
2022/03/04 06:23:14;;;;;;;9.38;6.10;;;2.10;99.90;;;;;;5071071;28;20804;-84
2022/03/04 06:25:40;;;;;;;8.37;5.47;;;2.20;99.90;;;;;;5070532;28;20390;-87
2022/03/04 06:28:06;;;;;;;8.50;6.07;;;2.20;99.90;;;;;;5070631;28;20759;-87
2022/03/04 06:30:34;;;;;;;7.82;6.28;;;2.30;99.90;;;;;;5050949;28;20385;-82
2022/03/04 06:35:45;;;;;;;11.10;7.45;;;2.30;99.90;;;;;;5067495;28;20954;-86
2022/03/04 06:38:11;;;;;;;9.55;7.00;;;2.40;99.90;;;;;;5071912;28;20373;-84
2022/03/04 06:40:38;;;;;;;10.38;7.15;;;2.50;99.90;;;;;;5090035;28;20375;-84
2022/03/04 06:43:05;;;;;;;8.15;5.38;;;2.50;99.90;;;;;;5090614;28;20746;-86
2022/03/04 06:45:31;;;;;;;10.43;5.50;;;2.60;99.90;;;;;;5072481;28;20371;-83
2022/03/04 06:47:57;;;;;;;8.20;5.53;;;2.60;99.90;;;;;;5089164;28;20404;-84
2022/03/04 06:50:23;;;;;;;7.60;5.05;;;2.70;99.90;;;;;;5072379;28;20387;-86
2022/03/04 06:52:51;;;;;;;7.38;4.93;;;2.50;99.90;;;;;;5090655;28;20842;-84
2022/03/04 06:55:16;;;;;;;9.07;5.20;;;2.50;99.90;;;;;;5058649;28;20387;-85
2022/03/04 06:57:42;;;;;;;8.70;5.30;;;2.40;99.90;;;;;;5068504;28;20376;-82
2022/03/04 07:00:10;;;;;;;10.73;6.35;;;2.60;99.90;;;;;;5089720;28;20463;-84
2022/03/04 07:02:37;;;;;;;10.67;5.87;;;2.60;99.90;;;;;;5090269;28;20365;-88
2022/03/04 07:05:04;;;;;;;7.15;5.65;;;2.50;99.90;;;;;;5072100;28;20376;-87
2022/03/04 07:07:29;;;;;;;7.28;5.22;;;2.50;99.90;;;;;;5072012;28;20431;-85
2022/03/04 07:09:55;;;;;;;9.13;5.72;;;2.60;99.90;;;;;;5089484;28;20380;-84
2022/03/04 07:12:20;;;;;;;6.47;4.43;;;2.80;99.90;;;;;;5071238;28;20388;-84
2022/03/04 07:14:46;;;;;;;7.53;4.80;;;2.90;99.90;;;;;;5062393;28;20449;-87
2022/03/04 07:17:13;;;;;;;7.18;4.75;;;2.90;99.90;;;;;;5069179;28;20428;-88
2022/03/04 07:19:38;;;;;;;8.85;5.30;;;2.80;99.90;;;;;;5068252;28;20468;-88
2022/03/04 07:22:04;;;;;;;7.93;5.30;;;2.90;99.90;;;;;;5053153;28;20493;-83
2022/03/04 07:24:29;;;;;;;8.17;5.30;;;2.90;99.90;;;;;;5069607;28;20787;-85
2022/03/04 07:26:55;;;;;;;10.17;6.00;;;2.90;99.90;;;;;;5068716;28;20427;-82
2022/03/04 07:29:20;;;;;;;8.90;5.47;;;2.90;99.90;;;;;;5071281;28;20422;-87
2022/03/04 07:31:46;;;;;;;8.43;5.60;;;3.00;99.90;;;;;;5060517;28;20743;-84
2022/03/04 07:34:12;;;;;;;8.25;5.60;;;3.10;99.90;;;;;;5069846;28;21102;-84
2022/03/04 07:36:37;;;;;;;10.57;6.57;;;3.00;99.90;;;;;;5071120;28;20544;-86
2022/03/04 07:39:03;;;;;;;8.23;5.77;;;3.00;99.90;;;;;;5078181;28;20390;-83
2022/03/04 07:41:29;;;;;;;9.10;6.07;;;2.80;99.90;;;;;;5052025;28;20794;-84
2022/03/04 07:43:54;;;;;;;8.18;5.80;;;2.80;99.90;;;;;;5055267;28;20382;-87
2022/03/04 07:46:22;;;;;;;9.53;5.87;;;3.00;99.90;;;;;;5053910;28;20398;-82
2022/03/04 07:48:47;;;;;;;7.65;5.38;;;3.10;99.90;;;;;;5072099;28;20439;-84
2022/03/04 07:51:13;;;;;;;7.82;5.75;;;3.40;99.90;;;;;;5071142;28;20370;-85
2022/03/04 07:53:38;;;;;;;7.65;5.50;;;3.40;99.90;;;;;;5085245;28;20432;-86
2022/03/04 07:56:04;;;;;;;7.70;5.57;;;3.40;99.90;;;;;;5071839;28;20384;-85
2022/03/04 07:58:30;;;;;;;8.43;6.03;;;3.30;99.90;;;;;;5089613;28;20451;-85
2022/03/04 08:00:55;;;;;;;6.68;5.10;;;3.40;99.90;;;;;;5071858;28;20369;-83
2022/03/04 08:03:21;;;;;;;8.23;5.10;;;3.40;99.90;;;;;;5071888;28;20398;-83
2022/03/04 08:05:46;;;;;;;7.63;5.60;;;3.40;99.90;;;;;;5053457;28;20378;-85
2022/03/04 08:08:12;;;;;;;9.10;5.47;;;3.40;99.90;;;;;;5069490;28;20407;-84
2022/03/04 08:10:37;;;;;;;7.88;5.40;;;3.40;99.90;;;;;;5052293;28;20894;-83
2022/03/04 08:13:04;;;;;;;7.47;5.35;;;3.50;99.90;;;;;;5035481;28;20386;-84
2022/03/04 08:15:30;;;;;;;8.32;4.65;;;3.50;99.90;;;;;;5051438;28;20386;-83
2022/03/04 08:17:55;;;;;;;6.53;4.83;;;3.40;99.90;;;;;;5068585;28;20449;-83
2022/03/04 08:20:21;;;;;;;9.13;4.95;;;3.40;99.90;;;;;;5050059;28;20808;-83
2022/03/04 08:22:47;;;;;;;7.63;4.55;;;3.40;99.90;;;;;;5050395;28;20394;-85
2022/03/04 08:25:13;;;;;;;6.50;4.35;;;3.40;99.90;;;;;;5051066;28;20396;-83
2022/03/04 08:27:40;;;;;;;5.97;4.07;;;3.40;99.90;;;;;;5069081;28;20420;-85
2022/03/04 08:30:08;;;;;;;8.45;4.25;;;3.50;99.90;;;;;;5070008;28;20382;-84
2022/03/04 08:32:34;;;;;;;7.83;4.10;;;3.60;99.90;;;;;;5070803;28;20476;-85
2022/03/04 08:34:59;;;;;;;8.40;4.33;;;3.80;99.90;;;;;;5053808;28;20779;-83
2022/03/04 08:37:25;;;;;;;5.47;4.07;;;4.00;99.90;;;;;;5069152;28;20390;-85
2022/03/04 08:39:51;;;;;;;7.07;3.90;;;3.90;99.90;;;;;;5051270;28;20976;-85
2022/03/04 08:42:16;;;;;;;7.73;4.00;;;3.90;99.90;;;;;;5068954;28;20988;-84
2022/03/04 08:44:42;;;;;;;6.57;4.20;;;4.40;99.90;;;;;;5073188;28;20380;-83
2022/03/04 08:47:08;;;;;;;8.13;4.22;;;4.40;99.90;;;;;;5070750;28;20447;-83
2022/03/04 08:49:34;;;;;;;7.87;4.47;;;4.40;99.90;;;;;;5070825;28;20368;-85
2022/03/04 08:52:00;;;;;;;6.32;4.45;;;4.30;99.90;;;;;;5070510;28;20415;-85
2022/03/04 08:54:26;;;;;;;7.55;4.80;;;4.30;99.90;;;;;;5089190;28;20392;-88
2022/03/04 08:56:52;;;;;;;6.47;4.53;;;4.30;99.90;;;;;;5053998;28;20457;-85
2022/03/04 08:59:17;;;;;;;7.23;4.57;;;4.40;99.90;;;;;;5072312;28;20791;-83
2022/03/04 09:01:43;;;;;;;7.65;4.97;;;4.50;99.90;;;;;;5087701;28;20381;-86
2022/03/04 09:04:08;;;;;;;8.17;6.17;;;4.70;99.90;;;;;;5082975;28;20375;-83
2022/03/04 09:06:34;;;;;;;8.00;5.43;;;4.70;99.90;;;;;;5066167;28;20394;-85
2022/03/04 09:09:00;;;;;;;7.85;5.10;;;4.80;99.90;;;;;;5053638;28;20479;-85
2022/03/04 09:11:25;;;;;;;8.73;5.47;;;4.70;99.90;;;;;;5092402;28;20379;-82
2022/03/04 09:13:51;;;;;;;8.45;5.55;;;4.70;99.90;;;;;;5074454;28;22903;-83
2022/03/04 09:16:17;;;;;;;9.43;5.35;;;4.80;99.90;;;;;;5094098;28;20707;-86
2022/03/04 09:18:43;;;;;;;7.43;3.93;;;4.90;99.90;;;;;;5074380;28;20386;-84
2022/03/04 09:21:08;;;;;;;7.33;4.03;;;5.10;99.90;;;;;;5073335;28;20886;-85
2022/03/04 09:23:34;;;;;;;6.88;4.97;;;5.50;99.90;;;;;;5071754;28;20512;-83
2022/03/04 09:26:00;;;;;;;5.32;3.40;;;5.40;99.90;;;;;;5072166;28;20379;-83
2022/03/04 09:28:25;;;;;;;6.70;3.53;;;5.10;99.90;;;;;;5071663;28;20895;-83
2022/03/04 09:30:51;;;;;;;3.67;2.63;;;5.40;99.90;;;;;;5091754;28;20388;-83
2022/03/04 09:33:16;;;;;;;5.60;2.50;;;5.50;99.90;;;;;;5092333;28;20426;-85
2022/03/04 09:35:42;;;;;;;5.32;2.85;;;5.30;99.90;;;;;;5074119;28;20376;-86
2022/03/04 09:38:07;;;;;;;4.27;2.20;;;5.50;99.90;;;;;;5091825;28;20400;-84
2022/03/04 09:40:33;;;;;;;3.07;1.90;;;5.70;99.90;;;;;;5073444;28;20940;-85
2022/03/04 09:43:00;;;;;;;3.13;1.70;;;6.10;99.90;;;;;;5073934;28;20419;-85
2022/03/04 09:45:26;;;;;;;4.40;1.60;;;6.20;99.90;;;;;;5057637;28;20374;-84
2022/03/04 09:47:52;;;;;;;4.65;1.60;;;6.20;99.90;;;;;;5071074;28;20900;-85
2022/03/04 09:50:18;;;;;;;3.40;1.53;;;6.00;99.90;;;;;;5071341;28;20470;-86
2022/03/04 09:52:46;;;;;;;3.70;1.55;;;6.10;99.90;;;;;;5086380;28;20407;-84
2022/03/04 09:55:12;;;;;;;2.83;1.55;;;6.00;99.90;;;;;;5073318;28;20753;-83
2022/03/04 09:57:40;;;;;;;3.03;1.50;;;5.70;99.90;;;;;;5091729;28;20384;-83
2022/03/04 10:00:06;;;;;;;3.83;1.70;;;5.50;99.90;;;;;;5056889;28;20504;-85
2022/03/04 10:02:35;;;;;;;4.40;1.60;;;5.30;99.90;;;;;;5070246;28;20503;-86
2022/03/04 10:05:02;;;;;;;2.67;1.80;;;5.50;99.90;;;;;;5073384;28;20384;-84
2022/03/04 10:07:41;;;;;;;3.45;1.77;;;5.90;99.90;;;;;;5077215;28;20409;-84
2022/03/04 10:10:12;;;;;;;3.38;1.80;;;6.20;99.90;;;;;;5054062;28;20465;-86
2022/03/04 10:12:51;;;;;;;3.97;2.05;;;6.50;99.90;;;;;;5072455;28;20483;-84
2022/03/04 10:15:18;;;;;;;4.50;2.13;;;6.40;99.90;;;;;;5069882;28;20382;-86
2022/03/04 10:17:58;;;;;;;3.55;1.77;;;6.10;99.90;;;;;;5067613;28;20378;-83
2022/03/04 10:20:37;;;;;;;3.17;1.70;;;5.90;99.90;;;;;;5053059;28;20431;-84
2022/03/04 10:23:18;;;;;;;4.07;1.80;;;5.80;99.90;;;;;;5071228;28;20390;-85
2022/03/04 10:25:47;;;;;;;2.53;1.65;;;5.90;99.90;;;;;;5052987;28;20979;-83
2022/03/04 10:28:14;;;;;;;5.30;1.77;;;5.90;99.90;;;;;;5052737;28;20526;-82
2022/03/04 10:30:44;;;;;;;4.22;1.67;;;5.90;99.90;;;;;;5061094;28;20374;-83
2022/03/04 10:33:18;;;;;;;4.88;1.75;;;5.90;99.90;;;;;;5069042;28;20798;-84
2022/03/04 10:35:45;;;;;;;5.30;1.73;;;5.80;99.90;;;;;;5069042;28;20404;-84
2022/03/04 10:38:23;;;;;;;4.88;1.65;;;5.70;99.90;;;;;;5069145;28;20406;-83
2022/03/04 10:40:49;;;;;;;3.72;1.70;;;5.70;99.90;;;;;;5074495;28;20442;-83
2022/03/04 10:43:23;;;;;;;3.83;2.00;;;5.60;99.90;;;;;;5068909;28;20379;-86
2022/03/04 10:46:02;;;;;;;7.45;2.70;;;5.40;99.90;;;;;;5068856;28;20397;-83
2022/03/04 10:48:29;;;;;;;4.85;2.70;;;5.30;99.90;;;;;;5073022;28;20876;-83
2022/03/04 10:50:57;;;;;;;4.32;2.85;;;5.10;99.90;;;;;;5052974;28;20402;-82
2022/03/04 10:53:25;;;;;;;5.05;3.00;;;5.10;99.90;;;;;;5070137;28;20775;-84
2022/03/04 10:56:11;;;;;;;7.10;3.92;;;5.10;99.90;;;;;;5069998;28;20377;-83
2022/03/04 10:58:40;;;;;;;6.38;4.40;;;5.30;99.90;;;;;;5071773;28;20395;-82
2022/03/04 11:01:11;;;;;;;6.22;4.10;;;5.30;99.90;;;;;;5068263;28;20385;-86
2022/03/04 11:03:41;;;;;;;9.35;6.00;;;5.30;99.90;;;;;;5069604;28;20390;-84
2022/03/04 11:06:09;;;;;;;10.75;6.93;;;5.30;99.90;;;;;;5069650;28;20378;-83
2022/03/04 11:08:44;;;;;;;11.82;7.18;;;5.00;99.90;;;;;;5065994;28;20406;-84
2022/03/04 11:11:18;;;;;;;9.23;6.82;;;5.10;99.90;;;;;;5052858;28;20397;-85
2022/03/04 11:13:44;;;;;;;9.13;6.70;;;5.20;99.90;;;;;;5052549;28;20444;-82
2022/03/04 11:16:10;;;;;;;10.23;7.00;;;5.40;99.90;;;;;;5069321;28;20382;-84
2022/03/04 11:18:35;;;;;;;9.53;6.80;;;5.30;99.90;;;;;;5056148;28;20388;-85
2022/03/04 11:21:04;;;;;;;7.70;5.90;;;5.40;99.90;;;;;;5071780;28;20388;-84
2022/03/04 11:23:37;;;;;;;9.07;6.13;;;5.60;99.90;;;;;;5059758;28;20398;-82
2022/03/04 11:26:05;;;;;;;8.75;6.20;;;5.50;99.90;;;;;;5076501;28;20393;-85
2022/03/04 11:28:38;;;;;;;8.65;6.68;;;5.60;99.90;;;;;;5089273;28;20392;-83
2022/03/04 11:31:08;;;;;;;9.13;7.15;;;5.60;99.90;;;;;;5069254;28;20450;-84
2022/03/04 11:33:35;;;;;;;12.13;7.43;;;5.50;99.90;;;;;;5084202;28;20428;-85
2022/03/04 11:36:18;;;;;;;11.30;8.80;;;5.50;99.90;;;;;;5089200;28;20376;-83
2022/03/04 11:38:46;;;;;;;11.20;7.23;;;5.40;99.90;;;;;;5090844;28;20416;-85
2022/03/04 11:41:30;;;;;;;8.10;6.40;;;5.50;99.90;;;;;;5069133;28;20449;-84
2022/03/04 11:44:10;;;;;;;8.38;6.60;;;5.60;99.90;;;;;;5071385;28;20416;-83
2022/03/04 11:47:00;;;;;;;8.38;6.35;;;5.90;99.90;;;;;;5088820;28;20407;-83
2022/03/04 11:49:48;;;;;;;9.00;6.28;;;6.10;99.90;;;;;;5070620;28;20403;-84
2022/03/04 11:52:20;;;;;;;9.30;6.55;;;6.50;99.90;;;;;;5089095;28;20389;-83
2022/03/04 11:55:07;;;;;;;7.97;6.43;;;6.60;99.90;;;;;;5088484;28;20407;-83
2022/03/04 11:57:45;;;;;;;9.23;6.75;;;6.60;99.90;;;;;;5082342;28;20388;-85
2022/03/04 12:00:11;;;;;;;9.43;6.00;;;6.40;99.90;;;;;;5081512;28;20400;-86
2022/03/04 12:02:47;;;;;;;8.70;5.47;;;6.30;99.90;;;;;;5050496;28;20484;-85
2022/03/04 12:05:19;;;;;;;6.10;4.55;;;6.20;99.90;;;;;;5067697;28;20392;-82
2022/03/04 12:07:51;;;;;;;6.63;4.07;;;6.00;99.90;;;;;;5068783;28;20406;-82
2022/03/04 12:10:19;;;;;;;10.40;4.63;;;5.90;99.90;;;;;;5069362;28;21145;-85
2022/03/04 12:13:03;;;;;;;5.65;3.80;;;5.80;99.90;;;;;;5050776;28;20383;-83
2022/03/04 12:15:30;;;;;;;5.82;4.00;;;5.90;99.90;;;;;;5068707;28;20468;-84
2022/03/04 12:18:07;;;;;;;4.80;3.30;;;5.90;99.90;;;;;;5050559;28;20378;-85
2022/03/04 12:20:41;;;;;;;5.82;3.95;;;6.00;99.90;;;;;;5049893;28;20386;-84
2022/03/04 12:23:11;;;;;;;5.78;3.70;;;6.20;99.90;;;;;;5068038;28;20374;-83
2022/03/04 12:25:51;;;;;;;6.57;4.50;;;6.40;99.90;;;;;;5068906;28;20421;-84
2022/03/04 12:28:17;;;;;;;6.43;4.78;;;6.50;99.90;;;;;;5084223;28;20398;-83
2022/03/04 12:30:43;;;;;;;6.83;4.03;;;6.50;99.90;;;;;;5069043;28;20461;-85
2022/03/04 12:33:10;;;;;;;5.17;3.40;;;6.40;99.90;;;;;;5050535;28;20457;-83
2022/03/04 12:35:36;;;;;;;5.32;3.20;;;6.30;99.90;;;;;;5069046;28;20451;-85
2022/03/04 12:38:02;;;;;;;4.90;2.60;;;6.30;99.90;;;;;;5068604;28;20733;-85
2022/03/04 12:40:28;;;;;;;4.93;3.00;;;6.40;99.90;;;;;;5068745;28;20726;-85
2022/03/04 12:42:55;;;;;;;5.40;2.95;;;6.50;99.90;;;;;;5069141;28;20984;-84
2022/03/04 12:45:21;;;;;;;6.63;3.30;;;6.90;99.90;;;;;;5051285;28;20370;-84
2022/03/04 12:47:47;;;;;;;6.28;3.72;;;7.00;99.90;;;;;;5072339;28;20437;-84
2022/03/04 12:50:14;;;;;;;4.88;3.50;;;6.90;99.90;;;;;;5054467;28;20409;-86
2022/03/04 12:52:40;;;;;;;4.75;3.33;;;6.70;99.90;;;;;;5054016;28;20385;-82
2022/03/04 12:55:08;;;;;;;6.13;3.90;;;6.80;99.90;;;;;;5072651;28;20738;-82
2022/03/04 12:57:35;;;;;;;6.73;4.23;;;6.80;99.90;;;;;;5072421;28;20382;-83